Time;durP1;ratioP1;P1;durP2;ratioP2;P2;SDS_P1;SDS_P2;PMS_P1;PMS_P2;Temp;Humidity;BMP_temperature;BMP_pressure;BME280_temperature;BME280_humidity;BME280_pressure;Samples;Min_cycle;Max_cycle;Signal;HPM_P1;HPM_P2
2023/07/20 00:01:12;;;;;;;4.55;3.13;;;;;;;28.53;38.34;98395.50;5092154;28;20475;-76
2023/07/20 00:03:38;;;;;;;9.75;3.60;;;;;;;28.56;37.59;98404.91;5092085;28;20054;-76
2023/07/20 00:06:04;;;;;;;13.15;4.00;;;;;;;28.61;37.09;98400.50;5092067;28;20115;-78
2023/07/20 00:08:30;;;;;;;8.85;3.60;;;;;;;28.73;35.95;98383.50;5074621;28;20071;-77
2023/07/20 00:10:55;;;;;;;8.60;3.75;;;;;;;28.84;36.24;98375.38;5092106;28;20032;-77
2023/07/20 00:13:21;;;;;;;7.70;3.42;;;;;;;28.87;35.84;98358.72;5091674;28;20032;-77
2023/07/20 00:15:46;;;;;;;12.40;3.85;;;;;;;28.97;35.68;98368.00;5074709;28;20574;-78
2023/07/20 00:18:14;;;;;;;6.55;3.28;;;;;;;29.03;35.54;98367.84;5075016;28;20066;-80
2023/07/20 00:20:40;;;;;;;7.65;3.22;;;;;;;28.98;35.04;98359.69;5093061;28;20127;-78
2023/07/20 00:23:05;;;;;;;6.63;3.60;;;;;;;29.00;35.18;98354.91;5074867;28;20111;-76
2023/07/20 00:25:31;;;;;;;12.02;3.50;;;;;;;28.99;35.29;98357.84;5092873;28;20512;-77
2023/07/20 00:27:56;;;;;;;11.45;3.20;;;;;;;28.96;35.19;98344.91;5091918;28;20039;-77
2023/07/20 00:30:22;;;;;;;10.15;3.50;;;;;;;29.02;34.66;98336.66;5058021;28;20028;-76
2023/07/20 00:32:47;;;;;;;12.98;3.10;;;;;;;29.08;34.85;98336.72;5091201;28;20043;-76
2023/07/20 00:35:13;;;;;;;11.18;2.60;;;;;;;29.12;34.55;98335.19;5074974;28;20094;-78
2023/07/20 00:37:39;;;;;;;10.77;2.80;;;;;;;29.16;34.60;98322.88;5091719;28;20032;-76
2023/07/20 00:40:07;;;;;;;12.30;2.70;;;;;;;29.17;34.22;98319.13;5057705;28;20028;-77
2023/07/20 00:42:32;;;;;;;;;;;;;;;29.22;33.71;98316.53;5091814;28;20386;-78
2023/07/20 00:44:58;;;;;;;14.88;2.42;;;;;;;29.22;33.81;98297.72;5091634;28;20014;-78
2023/07/20 00:47:23;;;;;;;8.73;2.40;;;;;;;29.25;33.65;98291.84;5091432;28;20067;-78
2023/07/20 00:49:48;;;;;;;7.65;2.25;;;;;;;29.30;33.38;98280.34;5092389;28;20044;-77
2023/07/20 00:52:14;;;;;;;8.65;2.38;;;;;;;29.29;33.36;98276.84;5074628;28;20036;-78
2023/07/20 00:54:40;;;;;;;11.85;2.47;;;;;;;29.31;33.71;98274.72;5074725;28;20020;-78
2023/07/20 00:57:06;;;;;;;11.32;2.22;;;;;;;29.36;33.34;98271.28;5057816;28;20044;-76
2023/07/20 00:59:31;;;;;;;7.30;2.40;;;;;;;29.36;33.62;98269.41;5074454;28;20035;-77
2023/07/20 01:01:57;;;;;;;9.10;2.25;;;;;;;29.40;32.86;98257.09;5074588;28;20031;-79
2023/07/20 01:04:22;;;;;;;7.65;2.50;;;;;;;29.44;33.22;98243.16;5074299;28;20052;-77
2023/07/20 01:07:09;;;;;;;7.32;2.33;;;;;;;29.45;33.13;98239.41;5073954;28;20491;-78
2023/07/20 01:09:50;;;;;;;7.38;2.70;;;;;;;29.41;33.29;98239.91;5091436;28;20122;-77
2023/07/20 01:12:24;;;;;;;15.60;2.60;;;;;;;29.44;33.58;98238.56;5074871;28;20028;-78
2023/07/20 01:14:50;;;;;;;7.72;3.15;;;;;;;29.46;33.36;98219.50;5074257;28;20410;-75
2023/07/20 01:17:15;;;;;;;19.60;4.18;;;;;;;29.42;33.49;98213.81;5090694;28;20043;-75
2023/07/20 01:19:41;;;;;;;12.55;3.30;;;;;;;29.38;33.86;98218.06;5091907;28;20036;-77
2023/07/20 01:22:21;;;;;;;13.50;3.63;;;;;;;29.37;33.82;98213.78;5073496;28;20047;-75
2023/07/20 01:25:22;;;;;;;14.07;2.97;;;;;;;29.34;33.99;98193.56;5091127;28;20085;-76
2023/07/20 01:28:23;;;;;;;12.23;2.50;;;;;;;29.27;33.72;98173.34;5069704;28;20079;-75
2023/07/20 01:31:10;;;;;;;8.38;2.55;;;;;;;29.25;33.60;98172.78;5038968;28;20457;-76
2023/07/20 01:33:35;;;;;;;11.52;2.80;;;;;;;29.23;33.59;98181.91;5070051;28;20140;-77
2023/07/20 01:36:01;;;;;;;9.50;2.83;;;;;;;29.25;33.57;98181.66;5019851;28;20047;-77
2023/07/20 01:38:26;;;;;;;7.97;2.70;;;;;;;29.26;34.16;98199.41;5053405;28;20056;-77
2023/07/20 01:40:52;;;;;;;8.35;2.53;;;;;;;29.25;34.35;98197.78;5036414;28;20094;-76
2023/07/20 01:43:17;;;;;;;5.63;2.40;;;;;;;29.25;34.13;98200.47;5036035;28;20535;-77
2023/07/20 01:45:43;;;;;;;12.55;2.65;;;;;;;29.19;34.19;98185.34;5036624;28;20182;-78
2023/07/20 01:48:09;;;;;;;7.47;2.80;;;;;;;29.17;34.39;98182.06;5069900;28;20205;-78
2023/07/20 01:50:34;;;;;;;4.85;2.65;;;;;;;29.16;34.08;98173.22;5054137;28;20044;-77
2023/07/20 01:53:00;;;;;;;11.32;2.80;;;;;;;29.15;34.17;98168.09;5056711;28;20600;-78
2023/07/20 01:55:26;;;;;;;8.88;2.65;;;;;;;29.17;34.65;98179.38;5039985;28;20041;-78
2023/07/20 01:57:51;;;;;;;10.30;2.90;;;;;;;29.12;34.35;98174.75;5056343;28;20067;-78
2023/07/20 02:00:21;;;;;;;10.35;2.90;;;;;;;29.10;34.94;98168.84;5073630;28;20032;-78
2023/07/20 02:02:46;;;;;;;7.32;2.80;;;;;;;29.04;35.28;98180.59;5073382;28;20036;-78
2023/07/20 02:05:12;;;;;;;7.50;2.60;;;;;;;29.00;35.46;98184.81;5073536;28;20106;-78
2023/07/20 02:07:37;;;;;;;9.80;2.75;;;;;;;28.95;35.71;98176.72;5095770;28;20058;-78
2023/07/20 02:10:03;;;;;;;7.75;2.83;;;;;;;28.86;35.32;98171.78;5077142;28;20040;-78
2023/07/20 02:12:28;;;;;;;11.45;2.90;;;;;;;28.84;35.24;98189.19;5094630;28;20498;-77
2023/07/20 02:14:54;;;;;;;9.45;2.67;;;;;;;28.78;35.40;98190.19;5100335;28;20483;-77
2023/07/20 02:17:19;;;;;;;8.68;2.65;;;;;;;28.76;35.64;98193.13;5079019;28;20047;-78
2023/07/20 02:19:45;;;;;;;13.73;2.78;;;;;;;28.81;34.91;98190.53;5095276;28;20032;-77
2023/07/20 02:22:10;;;;;;;15.25;3.25;;;;;;;28.74;35.22;98194.47;5093054;28;20036;-76
2023/07/20 02:24:36;;;;;;;13.38;2.72;;;;;;;28.65;35.29;98199.44;5077066;28;20028;-77
2023/07/20 02:27:01;;;;;;;8.85;2.70;;;;;;;28.54;35.46;98201.13;5093980;28;20028;-76
2023/07/20 02:29:27;;;;;;;13.52;2.97;;;;;;;28.56;35.73;98203.56;5075755;28;20055;-76
2023/07/20 02:31:53;;;;;;;9.00;2.92;;;;;;;28.48;35.82;98196.75;5094959;28;20032;-76
2023/07/20 02:34:18;;;;;;;10.23;2.80;;;;;;;28.58;35.91;98214.91;5094035;28;20475;-76
2023/07/20 02:36:46;;;;;;;10.45;3.17;;;;;;;28.56;35.87;98206.25;5074210;28;20048;-76
2023/07/20 02:39:11;;;;;;;10.55;2.63;;;;;;;28.54;35.96;98211.06;5075192;28;20033;-76
2023/07/20 02:41:36;;;;;;;8.75;2.72;;;;;;;28.52;36.19;98214.00;5073620;28;20033;-77
2023/07/20 02:44:03;;;;;;;8.00;2.75;;;;;;;28.51;36.27;98215.03;5072152;28;20067;-76
2023/07/20 02:46:30;;;;;;;10.90;2.70;;;;;;;28.49;36.00;98217.16;5074389;28;20042;-76
2023/07/20 02:48:55;;;;;;;11.32;2.60;;;;;;;28.46;35.87;98214.97;5072819;28;20039;-76
2023/07/20 02:51:21;;;;;;;12.38;2.72;;;;;;;28.44;36.01;98212.53;5073152;28;20123;-76
2023/07/20 02:53:46;;;;;;;11.70;3.00;;;;;;;28.44;36.29;98217.91;5073875;28;20033;-75
2023/07/20 02:56:12;;;;;;;6.60;2.63;;;;;;;28.41;36.61;98207.66;5074003;28;20031;-76
2023/07/20 02:58:43;;;;;;;15.70;3.17;;;;;;;28.39;36.78;98217.03;5039611;28;20037;-76
2023/07/20 03:01:09;;;;;;;9.73;2.58;;;;;;;28.40;36.61;98224.00;5072700;28;20028;-76
2023/07/20 03:03:38;;;;;;;6.97;2.35;;;;;;;28.36;36.75;98225.56;5088396;28;20047;-77
2023/07/20 03:06:04;;;;;;;11.38;2.88;;;;;;;28.32;36.74;98220.69;5076626;28;20407;-76
2023/07/20 03:08:30;;;;;;;13.50;2.70;;;;;;;28.28;36.52;98224.91;5092627;28;20044;-77
2023/07/20 03:10:55;;;;;;;5.57;2.60;;;;;;;28.33;36.96;98232.22;5092757;28;20113;-77
2023/07/20 03:13:21;;;;;;;12.60;2.80;;;;;;;28.30;36.97;98241.56;5094001;28;20028;-77
2023/07/20 03:15:47;;;;;;;11.90;2.65;;;;;;;28.27;37.04;98236.69;5093800;28;20198;-77
2023/07/20 03:18:12;;;;;;;9.20;2.92;;;;;;;28.28;36.93;98237.53;5092966;28;20085;-77
2023/07/20 03:20:38;;;;;;;8.00;3.00;;;;;;;28.33;36.71;98232.22;5092716;28;20085;-77
2023/07/20 03:23:04;;;;;;;12.32;3.05;;;;;;;28.43;37.01;98226.19;5074116;28;20052;-77
2023/07/20 03:25:29;;;;;;;12.57;2.83;;;;;;;28.43;36.50;98239.63;5056094;28;21512;-78
2023/07/20 03:27:55;;;;;;;16.00;3.22;;;;;;;28.56;36.28;98233.94;5075779;28;20024;-77
2023/07/20 03:30:20;;;;;;;7.25;2.55;;;;;;;28.73;36.31;98238.47;5059041;28;20032;-76
2023/07/20 03:32:46;;;;;;;9.88;2.95;;;;;;;28.79;36.66;98240.97;5108888;28;20487;-77
2023/07/20 03:35:11;;;;;;;8.45;3.13;;;;;;;28.85;36.80;98233.81;5075957;28;20028;-77
2023/07/20 03:37:38;;;;;;;10.45;2.97;;;;;;;29.05;36.41;98226.00;5074865;28;20460;-77
2023/07/20 03:40:04;;;;;;;7.25;2.58;;;;;;;29.21;35.77;98228.91;5075570;28;20043;-78
2023/07/20 03:42:30;;;;;;;10.30;2.55;;;;;;;29.34;35.35;98233.91;5069846;28;20043;-71
2023/07/20 03:44:56;;;;;;;8.60;2.75;;;;;;;29.81;34.90;98235.22;5071189;28;20040;-71
2023/07/20 03:47:21;;;;;;;9.70;2.90;;;;;;;30.26;34.51;98235.88;5072098;28;20537;-74
2023/07/20 03:49:47;;;;;;;8.15;2.63;;;;;;;30.65;33.74;98235.63;5038202;28;20549;-73
2023/07/20 03:52:12;;;;;;;10.18;2.35;;;;;;;31.07;33.11;98218.59;5055210;28;20103;-72
2023/07/20 03:54:38;;;;;;;21.95;2.97;;;;;;;31.51;33.10;98220.09;5071274;28;20028;-80
2023/07/20 03:57:03;;;;;;;8.88;2.90;;;;;;;32.04;32.14;98211.78;5054689;28;20036;-78
2023/07/20 03:59:29;;;;;;;16.38;2.70;;;;;;;32.47;31.13;98215.84;5081759;28;20115;-81
2023/07/20 04:01:54;;;;;;;12.05;2.47;;;;;;;32.95;30.09;98226.25;5071094;28;20040;-77
2023/07/20 04:04:20;;;;;;;16.17;2.60;;;;;;;33.42;29.81;98226.91;5072511;28;20052;-77
2023/07/20 04:06:45;;;;;;;12.70;2.83;;;;;;;33.92;28.66;98226.84;5071763;28;20441;-78
2023/07/20 04:09:11;;;;;;;9.18;2.58;;;;;;;34.44;27.81;98240.78;5071445;28;20032;-78
2023/07/20 04:11:37;;;;;;;7.38;2.50;;;;;;;34.90;27.37;98244.94;5054607;28;20055;-77
2023/07/20 04:14:02;;;;;;;7.95;2.33;;;;;;;35.42;26.53;98245.94;5053366;28;20032;-78
2023/07/20 04:16:28;;;;;;;17.88;2.67;;;;;;;35.85;26.42;98240.47;5071410;28;20528;-81
2023/07/20 04:18:56;;;;;;;9.25;2.38;;;;;;;36.26;25.68;98240.94;5052027;28;20426;-85
2023/07/20 04:21:22;;;;;;;9.85;2.53;;;;;;;36.73;24.91;98239.81;5091689;28;20032;-84
2023/07/20 04:23:47;;;;;;;9.98;2.75;;;;;;;37.17;24.65;98237.59;5090550;28;20032;-91
2023/07/20 04:26:14;;;;;;;10.20;2.45;;;;;;;37.23;24.41;98230.94;5080104;28;20028;-85
2023/07/20 04:28:42;;;;;;;4.13;2.45;;;;;;;37.55;23.89;98239.25;5090373;28;20040;-82
2023/07/20 04:31:14;;;;;;;11.43;3.03;;;;;;;38.14;23.40;98237.28;5090749;28;20028;-83
2023/07/20 04:33:39;;;;;;;7.85;2.67;;;;;;;38.63;22.36;98237.44;5092572;28;20028;-82
2023/07/20 04:36:05;;;;;;;5.80;2.55;;;;;;;39.12;21.78;98229.28;5091892;28;20061;-82
2023/07/20 04:38:30;;;;;;;5.93;2.60;;;;;;;39.59;21.22;98218.59;5091267;28;20092;-82
2023/07/20 04:40:56;;;;;;;7.07;2.67;;;;;;;40.07;20.65;98233.19;5057950;28;20407;-78
2023/07/20 04:43:21;;;;;;;8.13;2.97;;;;;;;40.50;20.45;98232.31;5091037;28;20082;-82
2023/07/20 04:45:47;;;;;;;8.10;2.80;;;;;;;40.85;20.09;98234.91;5092439;28;20403;-83
2023/07/20 04:48:14;;;;;;;8.20;2.75;;;;;;;41.28;19.80;98227.59;5092437;28;20035;-84
2023/07/20 04:50:44;;;;;;;7.38;2.72;;;;;;;41.74;19.27;98233.22;5091428;28;20036;-86
2023/07/20 04:53:10;;;;;;;9.38;2.85;;;;;;;42.19;18.76;98234.41;5091595;28;20036;-86
2023/07/20 04:55:36;;;;;;;4.38;2.30;;;;;;;42.59;18.26;98231.06;5092604;28;20491;-82
2023/07/20 04:58:03;;;;;;;7.38;2.50;;;;;;;42.96;17.74;98231.06;5091380;28;20058;-85
2023/07/20 05:00:29;;;;;;;11.30;2.50;;;;;;;43.37;17.60;98238.22;5090866;28;20119;-84
2023/07/20 05:02:55;;;;;;;6.23;2.33;;;;;;;43.71;17.07;98227.84;5091931;28;20407;-86
2023/07/20 05:05:20;;;;;;;7.20;2.77;;;;;;;44.10;16.90;98235.56;5073311;28;20309;-86
2023/07/20 05:07:46;;;;;;;10.63;2.80;;;;;;;44.44;16.81;98244.34;5091073;28;20032;-83
2023/07/20 05:10:11;;;;;;;6.50;2.90;;;;;;;44.80;16.55;98236.97;5092134;28;20040;-85
2023/07/20 05:12:37;;;;;;;9.03;2.70;;;;;;;45.14;16.19;98223.59;5091008;28;20467;-84
2023/07/20 05:15:03;;;;;;;10.37;2.73;;;;;;;45.51;15.37;98226.75;5073254;28;20040;-87
2023/07/20 05:17:29;;;;;;;6.88;2.70;;;;;;;45.83;16.24;98225.81;5086758;28;20031;-85
2023/07/20 05:19:54;;;;;;;6.88;2.70;;;;;;;46.15;15.16;98225.63;5063259;28;20111;-87
2023/07/20 05:22:20;;;;;;;8.83;3.00;;;;;;;46.43;15.33;98227.31;5091116;28;20040;-86
2023/07/20 05:24:45;;;;;;;10.27;3.07;;;;;;;46.75;15.32;98230.63;5106893;28;20030;-83
2023/07/20 05:27:11;;;;;;;7.93;3.40;;;;;;;47.02;14.87;98220.38;5094394;28;20166;-85
2023/07/20 05:29:36;;;;;;;11.83;3.23;;;;;;;47.35;14.69;98229.94;5112345;28;20126;-85
2023/07/20 05:32:02;;;;;;;5.93;2.83;;;;;;;47.62;14.50;98227.06;5096287;28;20390;-85
2023/07/20 05:34:28;;;;;;;7.18;2.85;;;;;;;47.88;13.84;98226.19;5095171;28;20069;-84
2023/07/20 05:37:12;;;;;;;5.13;2.45;;;;;;;48.11;13.38;98234.38;5077878;28;20031;-85
2023/07/20 05:39:37;;;;;;;9.25;2.40;;;;;;;48.39;11.93;98237.75;5102195;28;20039;-80
2023/07/20 05:42:03;;;;;;;7.80;2.57;;;;;;;48.15;11.40;98231.63;5098143;28;20032;-83
2023/07/20 05:44:29;;;;;;;9.65;4.00;;;;;;;48.45;12.67;98239.03;5094473;28;20042;-80
2023/07/20 05:46:54;;;;;;;11.90;4.27;;;;;;;48.71;12.86;98238.03;5094877;28;20040;-82
2023/07/20 05:49:20;;;;;;;11.05;5.32;;;;;;;48.88;12.58;98233.81;5094498;28;20032;-83
2023/07/20 05:51:46;;;;;;;11.07;3.90;;;;;;;49.05;12.60;98237.88;5094963;28;20475;-79
2023/07/20 05:54:12;;;;;;;;;;;;;;;49.06;12.72;98231.97;5112265;28;20028;-87
2023/07/20 05:56:37;;;;;;;12.23;3.65;;;;;;;49.37;13.18;98228.97;5077819;28;19937;-81
2023/07/20 05:59:03;;;;;;;10.57;3.57;;;;;;;49.52;12.33;98227.88;5094912;28;20032;-84
2023/07/20 06:01:28;;;;;;;5.97;3.13;;;;;;;49.69;12.95;98231.06;5094532;28;20491;-84
2023/07/20 06:03:53;;;;;;;11.07;3.07;;;;;;;49.78;12.15;98225.94;5111321;28;20040;-78
2023/07/20 06:06:19;;;;;;;7.43;2.50;;;;;;;49.91;12.62;98220.84;5078768;28;20329;-78
2023/07/20 06:08:45;;;;;;;7.05;2.40;;;;;;;49.99;12.70;98219.66;5060636;28;20032;-74
2023/07/20 06:11:11;;;;;;;6.80;2.38;;;;;;;50.05;12.22;98212.53;5095410;28;20036;-75
2023/07/20 06:13:36;;;;;;;9.60;2.20;;;;;;;50.12;12.16;98203.44;5076983;28;20039;-75
2023/07/20 06:16:03;;;;;;;5.82;2.00;;;;;;;50.20;11.88;98201.44;5111379;28;20032;-75
2023/07/20 06:18:28;;;;;;;8.40;2.10;;;;;;;50.15;10.61;98191.53;5077112;28;20028;-75
2023/07/20 06:20:54;;;;;;;25.88;2.35;;;;;;;49.92;10.11;98194.69;5077296;28;20135;-74
2023/07/20 06:23:19;;;;;;;5.78;1.40;;;;;;;49.71;8.35;98195.44;5094089;28;20036;-76
2023/07/20 06:25:45;;;;;;;11.68;1.80;;;;;;;49.37;9.72;98188.16;5093846;28;20399;-77
2023/07/20 06:28:11;;;;;;;6.95;2.00;;;;;;;49.43;10.66;98180.28;5093719;28;20044;-75
2023/07/20 06:30:36;;;;;;;7.13;2.08;;;;;;;49.58;10.22;98192.22;5076888;28;20390;-77
2023/07/20 06:33:02;;;;;;;5.07;1.90;;;;;;;49.65;10.70;98197.00;5110592;28;20478;-77
2023/07/20 06:35:27;;;;;;;12.00;2.20;;;;;;;49.70;10.69;98186.31;5060451;28;20305;-74
2023/07/20 06:37:53;;;;;;;6.03;1.90;;;;;;;49.73;10.46;98182.75;5094335;28;20262;-77
2023/07/20 06:40:19;;;;;;;11.32;2.50;;;;;;;49.69;10.28;98184.75;5076745;28;20036;-77
2023/07/20 06:42:44;;;;;;;6.28;2.13;;;;;;;49.68;10.68;98177.59;5093085;28;20036;-77
2023/07/20 06:45:10;;;;;;;5.13;2.20;;;;;;;49.69;10.19;98184.75;5093956;28;20555;-75
2023/07/20 06:47:38;;;;;;;5.45;2.10;;;;;;;49.71;10.46;98187.13;5092971;28;20097;-74
2023/07/20 06:50:03;;;;;;;11.90;2.30;;;;;;;49.39;10.52;98180.28;5059892;28;20032;-74
2023/07/20 06:52:29;;;;;;;7.40;2.10;;;;;;;49.44;10.63;98179.88;5093128;28;20028;-74
2023/07/20 06:54:54;;;;;;;6.73;1.70;;;;;;;49.50;10.91;98193.38;5076195;28;20093;-73
2023/07/20 06:57:20;;;;;;;6.13;2.43;;;;;;;49.48;11.07;98179.88;5092758;28;20063;-73
2023/07/20 06:59:45;;;;;;;7.40;2.20;;;;;;;49.43;10.97;98177.50;5093432;28;20028;-78
2023/07/20 07:02:11;;;;;;;6.00;2.37;;;;;;;49.42;11.12;98173.94;5075428;28;20258;-74
2023/07/20 07:04:36;;;;;;;6.77;2.33;;;;;;;49.41;11.79;98182.66;5091976;28;20355;-75
2023/07/20 07:07:03;;;;;;;5.63;2.20;;;;;;;49.37;11.54;98184.59;5075738;28;20040;-75
2023/07/20 07:09:28;;;;;;;9.05;2.03;;;;;;;49.33;11.73;98184.59;5076446;28;20039;-77
2023/07/20 07:11:54;;;;;;;9.20;2.13;;;;;;;49.34;11.87;98182.63;5093039;28;20027;-76
2023/07/20 07:14:20;;;;;;;9.35;2.38;;;;;;;49.29;11.78;98172.69;5086525;28;20078;-76
2023/07/20 07:16:45;;;;;;;9.68;2.28;;;;;;;49.25;11.89;98175.47;5081188;28;20036;-77
2023/07/20 07:19:11;;;;;;;7.70;1.83;;;;;;;49.21;12.28;98171.09;5038970;28;20040;-76
2023/07/20 07:21:36;;;;;;;5.80;1.67;;;;;;;49.11;10.97;98169.03;5073210;28;20054;-77
2023/07/20 07:24:02;;;;;;;8.37;2.00;;;;;;;48.84;11.24;98166.56;5039203;28;20060;-77
2023/07/20 07:26:27;;;;;;;5.50;1.70;;;;;;;48.80;11.59;98168.50;5073731;28;20028;-75
2023/07/20 07:28:53;;;;;;;4.10;1.77;;;;;;;48.77;11.64;98166.47;5073714;28;20259;-78
2023/07/20 07:31:18;;;;;;;6.83;2.00;;;;;;;48.72;11.72;98160.09;5072785;28;20036;-78
2023/07/20 07:33:44;;;;;;;7.77;2.20;;;;;;;48.61;12.16;98162.03;5073672;28;20549;-79
2023/07/20 07:36:09;;;;;;;6.67;2.00;;;;;;;48.53;12.15;98172.25;5073856;28;20107;-80
2023/07/20 07:38:34;;;;;;;8.83;1.90;;;;;;;48.44;12.02;98171.81;5072285;28;20028;-81
2023/07/20 07:41:00;;;;;;;6.53;2.10;;;;;;;48.34;12.45;98167.75;5054833;28;20498;-80
2023/07/20 07:43:27;;;;;;;7.37;2.13;;;;;;;48.26;12.61;98179.16;5072090;28;20086;-82
2023/07/20 07:45:53;;;;;;;6.03;2.13;;;;;;;48.15;12.30;98173.53;5071716;28;20127;-81
2023/07/20 07:48:20;;;;;;;8.32;2.22;;;;;;;48.08;12.68;98178.97;5054157;28;20045;-80
2023/07/20 07:50:45;;;;;;;7.00;2.03;;;;;;;48.00;12.82;98173.38;5074240;28;20036;-82
2023/07/20 07:53:11;;;;;;;6.50;1.80;;;;;;;47.93;12.84;98173.28;5056344;28;20086;-82
2023/07/20 07:55:36;;;;;;;4.70;2.20;;;;;;;47.89;13.02;98175.25;5055848;28;20060;-83
2023/07/20 07:58:02;;;;;;;7.73;2.30;;;;;;;47.84;13.10;98172.81;5038324;28;20051;-79
2023/07/20 08:00:27;;;;;;;5.70;2.10;;;;;;;47.75;13.04;98173.13;5055241;28;20044;-81
2023/07/20 08:02:53;;;;;;;6.83;2.40;;;;;;;47.70;12.79;98167.13;5073258;28;20035;-82
2023/07/20 08:05:18;;;;;;;9.77;2.40;;;;;;;47.59;13.13;98165.06;5038323;28;20048;-80
2023/07/20 08:07:45;;;;;;;8.23;2.50;;;;;;;47.46;12.95;98156.22;5073038;28;20384;-80
2023/07/20 08:10:10;;;;;;;;;;;;;;;47.32;13.05;98175.41;5072099;28;20085;-80
2023/07/20 08:12:35;;;;;;;;;;;;;;;47.16;13.52;98167.28;5055177;28;19913;-80
2023/07/20 08:15:01;;;;;;;7.87;2.50;;;;;;;47.07;13.54;98164.03;5072427;28;19912;-81
2023/07/20 08:17:26;;;;;;;9.57;2.53;;;;;;;47.01;13.86;98165.50;5037340;28;20040;-80
2023/07/20 08:19:52;;;;;;;4.70;2.23;;;;;;;46.97;14.02;98161.91;5054983;28;20032;-80
2023/07/20 08:22:17;;;;;;;6.83;2.37;;;;;;;46.93;13.91;98165.41;5071696;28;20028;-81
2023/07/20 08:24:43;;;;;;;5.90;2.07;;;;;;;46.93;13.61;98148.06;5071652;28;20021;-80
2023/07/20 08:27:09;;;;;;;3.93;2.13;;;;;;;46.90;13.80;98151.53;5038294;28;20044;-82
2023/07/20 08:29:37;;;;;;;6.60;1.97;;;;;;;46.76;13.90;98141.09;5038154;28;20123;-80
2023/07/20 08:32:04;;;;;;;4.65;2.40;;;;;;;46.73;13.47;98139.06;5071759;28;20037;-80
2023/07/20 08:34:29;;;;;;;4.10;2.25;;;;;;;46.69;13.69;98139.03;5071413;28;20025;-80
2023/07/20 08:36:56;;;;;;;13.52;2.30;;;;;;;46.66;14.26;98136.22;5072685;28;20033;-80
2023/07/20 08:39:22;;;;;;;7.65;2.47;;;;;;;46.66;14.01;98142.53;5071227;28;20050;-81
2023/07/20 08:41:48;;;;;;;;;;;;;;;46.60;14.35;98146.00;5055215;28;20033;-80
2023/07/20 08:44:14;;;;;;;6.32;2.20;;;;;;;46.56;14.29;98149.50;5072717;28;19919;-81
2023/07/20 08:46:39;;;;;;;9.43;2.50;;;;;;;46.49;15.04;98149.34;5070889;28;20048;-80
2023/07/20 08:49:06;;;;;;;4.80;2.40;;;;;;;46.43;14.81;98148.06;5054991;28;20028;-81
2023/07/20 08:51:31;;;;;;;8.25;2.20;;;;;;;46.36;14.54;98151.53;5038109;28;20344;-81
2023/07/20 08:53:58;;;;;;;7.80;2.60;;;;;;;46.24;15.00;98143.44;5037403;28;20028;-82
2023/07/20 08:56:25;;;;;;;3.95;2.20;;;;;;;46.15;14.83;98149.22;5054297;28;20572;-80
2023/07/20 08:58:51;;;;;;;6.57;2.50;;;;;;;46.05;15.44;98149.81;5054393;28;20095;-81
2023/07/20 09:01:17;;;;;;;13.00;2.60;;;;;;;45.94;14.97;98151.59;5037753;28;20039;-82
2023/07/20 09:03:43;;;;;;;7.65;2.28;;;;;;;45.64;15.20;98141.16;5054472;28;20364;-81
2023/07/20 09:06:08;;;;;;;5.07;2.40;;;;;;;45.33;15.20;98145.69;5054618;28;20040;-81
2023/07/20 09:08:37;;;;;;;8.00;2.40;;;;;;;45.34;15.72;98145.31;5054156;28;20028;-81
2023/07/20 09:11:03;;;;;;;10.63;2.58;;;;;;;45.16;15.49;98136.69;5071135;28;20075;-80
2023/07/20 09:13:28;;;;;;;7.90;2.30;;;;;;;45.27;15.85;98130.63;5054648;28;20032;-81
2023/07/20 09:15:54;;;;;;;8.57;2.53;;;;;;;45.26;15.80;98135.34;5072102;28;20024;-82
2023/07/20 09:18:26;;;;;;;10.27;2.78;;;;;;;45.18;15.42;98125.31;5054432;28;20043;-82
2023/07/20 09:20:52;;;;;;;5.43;2.67;;;;;;;45.08;15.56;98123.94;5053955;28;20075;-80
2023/07/20 09:23:17;;;;;;;10.33;2.70;;;;;;;45.01;15.67;98128.50;5071165;28;20068;-80
2023/07/20 09:25:43;;;;;;;8.13;2.53;;;;;;;44.94;16.16;98118.09;5054471;28;20031;-80
2023/07/20 09:28:08;;;;;;;7.63;2.90;;;;;;;44.81;15.92;98120.19;5054814;28;20099;-81
2023/07/20 09:30:34;;;;;;;12.23;3.00;;;;;;;44.60;16.30;98118.56;5054847;28;20040;-80
2023/07/20 09:33:00;;;;;;;8.00;2.57;;;;;;;44.43;16.52;98116.19;5054230;28;20033;-80
2023/07/20 09:35:25;;;;;;;7.40;2.60;;;;;;;44.22;16.51;98110.97;5053747;28;20041;-82
2023/07/20 09:37:57;;;;;;;7.43;2.40;;;;;;;44.11;16.54;98109.88;5054151;28;20067;-80
2023/07/20 09:40:23;;;;;;;10.35;2.97;;;;;;;43.97;16.70;98102.09;5054128;28;20050;-81
2023/07/20 09:42:48;;;;;;;6.67;2.70;;;;;;;43.86;16.77;98099.06;5037920;28;20028;-81
2023/07/20 09:45:14;;;;;;;8.33;2.93;;;;;;;43.74;16.93;98097.16;5053756;28;20052;-82
2023/07/20 09:47:40;;;;;;;5.87;3.00;;;;;;;43.54;17.06;98077.03;5054090;28;20110;-80
2023/07/20 09:50:12;;;;;;;8.98;2.75;;;;;;;43.37;17.43;98070.66;5054020;28;20025;-80
2023/07/20 09:52:40;;;;;;;8.60;2.65;;;;;;;43.29;17.57;98079.09;5071133;28;20028;-81
2023/07/20 09:55:09;;;;;;;5.85;2.58;;;;;;;43.05;17.43;98078.03;5054273;28;20447;-79
2023/07/20 09:57:35;;;;;;;8.88;2.95;;;;;;;42.98;17.55;98078.59;5053579;28;20041;-80
2023/07/20 10:00:04;;;;;;;9.98;2.75;;;;;;;42.95;17.53;98073.00;5070914;28;20128;-80
2023/07/20 10:02:33;;;;;;;9.45;2.53;;;;;;;42.88;17.72;98068.09;5070640;28;20025;-80
2023/07/20 10:04:58;;;;;;;7.50;2.90;;;;;;;42.78;18.07;98066.66;5054068;28;20416;-80
2023/07/20 10:07:24;;;;;;;8.47;2.70;;;;;;;42.75;18.03;98066.56;5053153;28;20041;-80
2023/07/20 10:09:51;;;;;;;6.05;2.70;;;;;;;42.68;18.04;98053.41;5070343;28;20029;-81
2023/07/20 10:12:17;;;;;;;4.65;2.45;;;;;;;42.64;18.13;98053.31;5072604;28;20131;-80
2023/07/20 10:14:49;;;;;;;8.27;3.10;;;;;;;42.57;18.34;98035.84;5057882;28;20025;-80
2023/07/20 10:17:14;;;;;;;8.98;3.38;;;;;;;42.51;17.89;98039.94;5056985;28;20042;-79
2023/07/20 10:19:44;;;;;;;7.13;3.20;;;;;;;42.47;18.03;98031.59;5058150;28;20036;-79
2023/07/20 10:22:31;;;;;;;5.22;2.90;;;;;;;42.43;18.07;98045.22;5073825;28;20036;-80
2023/07/20 10:24:58;;;;;;;11.30;3.10;;;;;;;42.41;18.38;98041.22;5057004;28;20029;-81
2023/07/20 10:27:24;;;;;;;7.97;3.05;;;;;;;42.37;18.45;98037.53;5057607;28;20078;-81
2023/07/20 10:29:49;;;;;;;7.60;3.10;;;;;;;42.34;18.29;98041.00;5040308;28;20054;-80
2023/07/20 10:32:15;;;;;;;7.90;2.90;;;;;;;42.26;18.34;98035.28;5040191;28;20036;-81
2023/07/20 10:34:40;;;;;;;5.10;2.83;;;;;;;42.16;18.35;98027.50;5040525;28;20025;-81
2023/07/20 10:37:06;;;;;;;7.27;3.20;;;;;;;42.06;18.56;98025.22;5040274;28;20029;-81
2023/07/20 10:39:32;;;;;;;7.70;3.20;;;;;;;41.90;18.56;98020.41;5056746;28;20066;-81
2023/07/20 10:42:03;;;;;;;6.70;3.03;;;;;;;41.87;18.82;98012.88;5056721;28;20126;-81
2023/07/20 10:44:28;;;;;;;8.23;3.03;;;;;;;41.80;18.93;98011.84;5073484;28;20426;-81
2023/07/20 10:47:01;;;;;;;7.70;2.97;;;;;;;41.74;19.24;98016.78;5073210;28;20048;-80
2023/07/20 10:49:27;;;;;;;6.78;2.80;;;;;;;41.69;18.87;98015.03;5056138;28;20051;-79
2023/07/20 10:51:58;;;;;;;9.57;2.93;;;;;;;41.63;18.97;98010.13;5056975;28;20037;-81
2023/07/20 10:54:23;;;;;;;8.43;2.58;;;;;;;41.58;19.09;98011.13;5056738;28;20025;-81
2023/07/20 10:56:49;;;;;;;11.48;3.03;;;;;;;41.52;19.43;98013.28;5074479;28;20031;-83
2023/07/20 10:59:37;;;;;;;7.00;2.92;;;;;;;41.47;19.29;98007.25;5039584;28;20499;-80
2023/07/20 11:02:09;;;;;;;8.98;3.00;;;;;;;41.40;19.49;97999.56;5072636;28;20484;-81
2023/07/20 11:04:41;;;;;;;10.07;3.40;;;;;;;41.30;19.40;97995.31;5039909;28;20127;-81
2023/07/20 11:07:07;;;;;;;8.00;3.00;;;;;;;41.23;19.52;98003.28;5056532;28;20189;-83
2023/07/20 11:09:36;;;;;;;10.25;2.88;;;;;;;41.17;19.23;97993.69;5039674;28;20028;-79
2023/07/20 11:12:14;;;;;;;8.10;3.03;;;;;;;41.11;19.65;97995.03;5055451;28;20407;-82
2023/07/20 11:14:54;;;;;;;6.50;3.00;;;;;;;41.07;19.95;97989.44;5056102;28;20040;-81
2023/07/20 11:17:22;;;;;;;8.63;2.80;;;;;;;41.02;20.15;97978.69;5073120;28;20103;-81
2023/07/20 11:19:55;;;;;;;7.20;3.17;;;;;;;40.99;20.22;97979.34;5056560;28;20102;-81
2023/07/20 11:22:21;;;;;;;12.45;3.10;;;;;;;40.91;19.96;97981.03;5072995;28;20021;-81
2023/07/20 11:24:48;;;;;;;8.52;3.30;;;;;;;40.80;19.56;97980.63;5040005;28;20025;-80
2023/07/20 11:27:14;;;;;;;8.85;3.15;;;;;;;40.77;19.90;97986.78;5056431;28;20127;-80
2023/07/20 11:29:39;;;;;;;7.28;2.97;;;;;;;40.73;20.05;97985.03;5056401;28;20494;-81